createdAt,value
2022-12-01T00:00:00.686Z,107.7
2022-12-01T00:01:16.990Z,112.1
2022-12-01T00:02:33.280Z,100
2022-12-01T00:03:49.566Z,106.2
2022-12-01T00:05:05.869Z,99.6
2022-12-01T00:06:22.165Z,98.8
2022-12-01T00:07:38.452Z,113
2022-12-01T00:08:53.760Z,105.1
2022-12-01T00:10:10.044Z,109.7
2022-12-01T00:11:26.346Z,109.5
2022-12-01T00:12:42.635Z,110
2022-12-01T00:13:58.939Z,104.3
2022-12-01T00:15:15.000Z,99.7
2022-12-01T00:16:31.517Z,100.4
2022-12-01T00:17:47.824Z,99.2
2022-12-01T00:19:04.106Z,102.6
2022-12-01T00:20:20.414Z,97.7
2022-12-01T00:21:36.692Z,97.5
2022-12-01T00:22:52.995Z,98.7
2022-12-01T00:24:09.279Z,94.9
2022-12-01T00:25:24.600Z,105.1
2022-12-01T00:26:40.879Z,101.7
2022-12-01T00:27:57.188Z,103
2022-12-01T00:29:13.466Z,98.7
2022-12-01T00:30:29.780Z,99.4
2022-12-01T00:31:46.053Z,86.7
2022-12-01T00:33:02.360Z,103.5
2022-12-01T00:34:18.658Z,95.9
2022-12-01T00:35:34.962Z,102.1
2022-12-01T00:36:51.229Z,97.6
2022-12-01T00:38:07.538Z,99.8
2022-12-01T00:39:23.824Z,98.5
2022-12-01T00:40:40.117Z,98
2022-12-01T00:41:55.436Z,104.7
2022-12-01T00:43:11.731Z,101.9
2022-12-01T00:44:28.009Z,103
2022-12-01T00:45:44.303Z,97.8
2022-12-01T00:47:00.601Z,100.5
2022-12-01T00:48:16.898Z,96.8
2022-12-01T00:49:33.191Z,102.6
2022-12-01T00:50:49.486Z,103
2022-12-01T00:52:05.787Z,98.9
2022-12-01T00:53:22.078Z,105
2022-12-01T00:54:38.369Z,105.4
2022-12-01T00:55:54.657Z,98.9
2022-12-01T00:57:10.950Z,102.5
2022-12-01T00:58:26.259Z,100.8
2022-12-01T00:59:42.564Z,102
2022-12-01T01:00:58.851Z,94.4
2022-12-01T01:02:15.149Z,98.3
2022-12-01T01:03:31.463Z,95.5
2022-12-01T01:04:47.735Z,98.5
2022-12-01T01:06:04.026Z,100.4
2022-12-01T01:07:20.318Z,96.7
2022-12-01T01:08:36.608Z,101.7
2022-12-01T01:09:52.905Z,92.2
2022-12-01T01:11:09.210Z,96.3
2022-12-01T01:12:25.492Z,112.9
2022-12-01T01:13:41.792Z,102
2022-12-01T01:14:57.102Z,100
2022-12-01T01:16:13.382Z,96.2
2022-12-01T01:17:29.682Z,94.8
2022-12-01T01:18:45.977Z,91.8
2022-12-01T01:20:02.275Z,92.5
2022-12-01T01:21:18.560Z,87.5
2022-12-01T01:22:34.866Z,104.7
2022-12-01T01:23:51.157Z,109.9
2022-12-01T01:25:07.454Z,105.4
2022-12-01T01:26:23.736Z,116.7
2022-12-01T01:27:40.039Z,113.2
2022-12-01T01:28:56.339Z,119.5
2022-12-01T01:30:12.623Z,119.2
2022-12-01T01:31:27.927Z,120.1
2022-12-01T01:32:44.228Z,115
2022-12-01T01:34:00.528Z,113.5
2022-12-01T01:35:16.821Z,113.5
2022-12-01T01:36:33.108Z,127.5
2022-12-01T01:37:49.406Z,120
2022-12-01T01:39:05.691Z,123.8
2022-12-01T01:40:21.993Z,114.5
2022-12-01T01:41:38.285Z,123.4
2022-12-01T01:42:54.577Z,116.5
2022-12-01T01:44:10.861Z,109.8
2022-12-01T01:45:27.174Z,110.7
2022-12-01T01:46:43.453Z,116.7
2022-12-01T01:47:58.761Z,108.8
2022-12-01T01:49:15.060Z,110.4
2022-12-01T01:50:31.351Z,110.4
2022-12-01T01:51:47.656Z,101.1
2022-12-01T01:53:03.934Z,108.7
2022-12-01T01:54:20.228Z,102.2
2022-12-01T01:55:36.531Z,98.6
2022-12-01T01:56:52.839Z,94.6
2022-12-01T01:58:09.109Z,93.7
2022-12-01T01:59:25.414Z,89.5
2022-12-01T02:00:41.704Z,91.3
2022-12-01T02:01:58.004Z,97.5
2022-12-01T02:03:14.303Z,100.6
2022-12-01T02:04:29.601Z,88.5
2022-12-01T02:05:45.896Z,89.7
2022-12-01T02:07:02.187Z,88.4
2022-12-01T02:08:18.483Z,94.6
2022-12-01T02:09:34.768Z,91
2022-12-01T02:10:51.064Z,97.2
2022-12-01T02:12:07.355Z,89.9
2022-12-01T02:13:23.656Z,101.4
2022-12-01T02:14:39.960Z,89.2
2022-12-01T02:15:56.236Z,95.4
2022-12-01T02:17:12.546Z,93
2022-12-01T02:18:28.841Z,90.5
2022-12-01T02:19:45.128Z,90.5
2022-12-01T02:21:00.440Z,92.2
2022-12-01T02:22:16.735Z,89.6
2022-12-01T02:23:33.030Z,104.5
2022-12-01T02:24:49.322Z,89.1
2022-12-01T02:26:05.605Z,90.5
2022-12-01T02:27:21.916Z,90.5
2022-12-01T02:28:38.206Z,97.2
2022-12-01T02:29:54.493Z,94.7
2022-12-01T02:31:10.779Z,96.2
2022-12-01T02:32:27.081Z,92.2
2022-12-01T02:33:43.388Z,85.5
2022-12-01T02:34:59.676Z,94.1
2022-12-01T02:36:15.968Z,92.9
2022-12-01T02:37:31.263Z,83.5
2022-12-01T02:38:47.570Z,90
2022-12-01T02:40:03.868Z,94.8
2022-12-01T02:41:20.158Z,94.5
2022-12-01T02:42:36.451Z,86.8
2022-12-01T02:43:52.733Z,78.9
2022-12-01T02:45:09.028Z,84.8
2022-12-01T02:46:25.322Z,88.3
2022-12-01T02:47:41.625Z,84.8
2022-12-01T02:48:57.916Z,92.3
2022-12-01T02:50:14.203Z,90.9
2022-12-01T02:51:30.508Z,81.1
2022-12-01T02:52:46.786Z,91.1
2022-12-01T02:54:02.103Z,92.9
2022-12-01T02:55:18.395Z,83.9
2022-12-01T02:56:34.695Z,78.1
2022-12-01T02:57:50.995Z,79.7
2022-12-01T02:59:07.291Z,79.3
2022-12-01T03:00:23.579Z,78.1
2022-12-01T03:02:56.171Z,85.1
2022-12-01T03:04:12.455Z,83.7
2022-12-01T03:05:28.759Z,81.1
2022-12-01T03:06:45.056Z,92.8
2022-12-01T03:08:01.332Z,82.2
2022-12-01T03:09:17.637Z,94.7
2022-12-01T03:10:32.939Z,95.8
2022-12-01T03:11:49.234Z,95.1
2022-12-01T03:13:05.519Z,93.7
2022-12-01T03:14:21.813Z,93
2022-12-01T03:15:38.132Z,96.4
2022-12-01T03:16:54.414Z,91.3
2022-12-01T03:18:10.704Z,105.5
2022-12-01T03:19:27.011Z,103.1
2022-12-01T03:20:43.300Z,101.5
2022-12-01T03:21:59.590Z,86.6
2022-12-01T03:23:15.886Z,92.7
2022-12-01T03:24:32.186Z,92
2022-12-01T03:25:48.459Z,86.7
2022-12-01T03:27:03.772Z,94.5
2022-12-01T03:28:20.084Z,94.1
2022-12-01T03:29:36.356Z,92.8
2022-12-01T03:30:52.650Z,92.8
2022-12-01T03:32:08.945Z,97
2022-12-01T03:33:25.251Z,91.2
2022-12-01T03:34:40.567Z,92.7
2022-12-01T03:35:56.855Z,99.2
2022-12-01T03:37:13.156Z,93.2
2022-12-01T03:38:29.435Z,103.6
2022-12-01T03:39:45.737Z,90.2
2022-12-01T03:41:02.027Z,89.7
2022-12-01T03:42:18.326Z,99
2022-12-01T03:43:34.610Z,98
2022-12-01T03:44:50.911Z,92.1
2022-12-01T03:46:07.208Z,97.8
2022-12-01T03:47:23.494Z,97.4
2022-12-01T03:48:39.798Z,108.9
2022-12-01T03:49:56.090Z,91.3
2022-12-01T03:51:11.406Z,100.1
2022-12-01T03:52:27.693Z,91.8
2022-12-01T03:53:43.985Z,101.5
2022-12-01T03:55:00.279Z,90.9
2022-12-01T03:56:16.583Z,96.1
2022-12-01T03:57:32.862Z,101.6
2022-12-01T03:58:49.160Z,103.9
2022-12-01T04:00:05.447Z,95.3
2022-12-01T04:01:21.746Z,99.1
2022-12-01T04:02:38.041Z,96.1
2022-12-01T04:03:54.334Z,84.3
2022-12-01T04:05:10.622Z,80.9
2022-12-01T04:06:26.928Z,93
2022-12-01T04:07:42.243Z,88.3
2022-12-01T04:08:58.520Z,76.8
2022-12-01T04:10:14.819Z,80.5
2022-12-01T04:11:31.107Z,86.6
2022-12-01T04:12:47.414Z,85.9
2022-12-01T04:14:03.707Z,93.6
2022-12-01T04:15:19.996Z,101
2022-12-01T04:16:36.290Z,86.9
2022-12-01T04:17:52.585Z,91.1
2022-12-01T04:19:08.888Z,91.6
2022-12-01T04:20:25.182Z,80.7
2022-12-01T04:21:41.473Z,89.6
2022-12-01T04:22:57.762Z,88.6
2022-12-01T04:24:13.068Z,76.5
2022-12-01T04:25:29.359Z,87.1
2022-12-01T04:26:45.654Z,86.8
2022-12-01T04:28:01.949Z,83.4
2022-12-01T04:29:18.241Z,80
2022-12-01T04:30:34.536Z,84.1
2022-12-01T04:31:50.832Z,79.5
2022-12-01T04:33:07.126Z,81.6
2022-12-01T04:34:23.422Z,85.7
2022-12-01T04:35:39.706Z,83.8
2022-12-01T04:36:56.002Z,83.8
2022-12-01T04:38:12.299Z,87.9
2022-12-01T04:39:28.597Z,89.2
2022-12-01T04:40:43.899Z,80.3
2022-12-01T04:42:00.191Z,94.1
2022-12-01T04:43:16.495Z,95.6
2022-12-01T04:44:32.788Z,79.7
2022-12-01T04:45:49.074Z,85.1
2022-12-01T04:47:05.374Z,93.6
2022-12-01T04:48:21.673Z,99.5
2022-12-01T04:49:37.958Z,91.5
2022-12-01T04:50:54.261Z,82.5
2022-12-01T04:52:10.549Z,93.7
2022-12-01T04:53:26.841Z,94.5
2022-12-01T04:54:43.137Z,100
2022-12-01T04:55:59.445Z,85.2
2022-12-01T04:57:14.747Z,90.3
2022-12-01T04:58:31.045Z,86.4
2022-12-01T04:59:47.334Z,84.8
2022-12-01T05:01:03.635Z,99
2022-12-01T05:02:19.930Z,90.3
2022-12-01T05:04:52.503Z,92.8
2022-12-01T05:06:08.799Z,88.2
2022-12-01T05:07:25.110Z,87.2
2022-12-01T05:08:41.388Z,88.3
2022-12-01T05:09:57.675Z,89.6
2022-12-01T05:11:13.972Z,82.4
2022-12-01T05:12:30.273Z,86.5
2022-12-01T05:13:45.573Z,94.1
2022-12-01T05:15:01.884Z,87.7
2022-12-01T05:16:18.169Z,88.6
2022-12-01T05:17:34.456Z,91.7
2022-12-01T05:18:50.761Z,99.1
2022-12-01T05:20:07.056Z,87.5
2022-12-01T05:21:23.344Z,86.4
2022-12-01T05:22:39.649Z,84.5
2022-12-01T05:23:55.937Z,97.9
2022-12-01T05:25:12.230Z,83
2022-12-01T05:26:28.518Z,89.3
2022-12-01T05:27:44.804Z,88.7
2022-12-01T05:29:01.114Z,92.2
2022-12-01T05:30:16.412Z,88.8
2022-12-01T05:31:32.713Z,92.7
2022-12-01T05:32:49.008Z,87.9
2022-12-01T05:34:05.000Z,105.5
2022-12-01T05:35:21.599Z,95.5
2022-12-01T05:36:37.898Z,93.2
2022-12-01T05:37:54.175Z,108.2
2022-12-01T05:39:10.475Z,96.8
2022-12-01T05:40:26.772Z,98.8
2022-12-01T05:41:43.068Z,107.4
2022-12-01T05:42:59.373Z,122
2022-12-01T05:44:15.665Z,113.1
2022-12-01T05:45:31.943Z,149.2
2022-12-01T05:46:47.266Z,147.2
2022-12-01T05:48:03.546Z,220.8
2022-12-01T05:49:19.842Z,156.5
2022-12-01T05:50:36.141Z,154.6
2022-12-01T05:51:52.442Z,152.8
2022-12-01T05:53:08.718Z,126
2022-12-01T05:54:25.015Z,131.9
2022-12-01T05:55:41.323Z,123.9
2022-12-01T05:56:57.605Z,111.5
2022-12-01T05:58:13.911Z,107.3
2022-12-01T05:59:30.193Z,109.9
2022-12-01T06:00:46.493Z,110.3
2022-12-01T06:02:02.782Z,126.9
2022-12-01T06:03:18.096Z,125.4
2022-12-01T06:04:34.395Z,121.2
2022-12-01T06:05:50.696Z,119.8
2022-12-01T06:07:06.976Z,109.9
2022-12-01T06:08:23.264Z,113.9
2022-12-01T06:09:39.553Z,100.9
2022-12-01T06:10:55.848Z,99.9
2022-12-01T06:12:12.140Z,105.8
2022-12-01T06:13:28.435Z,104.7
2022-12-01T06:14:44.734Z,104.7
2022-12-01T06:16:01.033Z,102.5
2022-12-01T06:17:17.333Z,103
2022-12-01T06:18:33.626Z,96.3
2022-12-01T06:19:48.918Z,110.5
2022-12-01T06:21:05.216Z,99.5
2022-12-01T06:22:21.519Z,101.3
2022-12-01T06:23:37.818Z,96.1
2022-12-01T06:24:54.095Z,99.2
2022-12-01T06:26:10.391Z,90.5
2022-12-01T06:27:26.693Z,99.3
2022-12-01T06:28:42.942Z,102.6
2022-12-01T06:29:59.232Z,95.7
2022-12-01T06:31:15.512Z,105.2
2022-12-01T06:32:31.772Z,98.1
2022-12-01T06:33:48.020Z,107.5
2022-12-01T06:35:04.252Z,104.8
2022-12-01T06:36:19.524Z,100.2
2022-12-01T06:37:35.796Z,102
2022-12-01T06:38:52.102Z,105.8
2022-12-01T06:40:08.346Z,95.5
2022-12-01T06:41:24.583Z,100.7
2022-12-01T06:42:40.836Z,106.5
2022-12-01T06:43:57.064Z,96.7
2022-12-01T06:45:13.302Z,89
2022-12-01T06:46:29.544Z,107
2022-12-01T06:47:45.782Z,97.3
2022-12-01T06:49:02.024Z,99.1
2022-12-01T06:50:18.270Z,99.9
2022-12-01T06:51:34.506Z,96.8
2022-12-01T06:52:49.758Z,95.1
2022-12-01T06:54:06.001Z,89.2
2022-12-01T06:55:22.239Z,100.2
2022-12-01T06:56:38.486Z,102.6
2022-12-01T06:57:54.711Z,94.4
2022-12-01T06:59:10.951Z,99.7
2022-12-01T07:00:27.203Z,107.6
2022-12-01T07:01:43.443Z,105.5
2022-12-01T07:02:59.674Z,109.9
2022-12-01T07:04:15.925Z,101.4
2022-12-01T07:05:32.161Z,96.3
2022-12-01T07:06:48.407Z,105.5
2022-12-01T07:08:04.637Z,105.2
2022-12-01T07:09:19.890Z,104.6
2022-12-01T07:10:36.144Z,96
2022-12-01T07:11:52.370Z,107.5
2022-12-01T07:13:08.623Z,97.3
2022-12-01T07:14:24.851Z,100.2
2022-12-01T07:15:41.093Z,96.3
2022-12-01T07:16:57.328Z,101.1
2022-12-01T07:18:13.568Z,92.5
2022-12-01T07:19:29.816Z,102.6
2022-12-01T07:20:46.055Z,102.7
2022-12-01T07:22:02.293Z,106.1
2022-12-01T07:23:18.538Z,105
2022-12-01T07:24:34.772Z,107.6
2022-12-01T07:25:50.031Z,101.3
2022-12-01T07:27:06.267Z,103.8
2022-12-01T07:28:22.510Z,98.9
2022-12-01T07:29:38.757Z,96.1
2022-12-01T07:30:54.994Z,98.5
2022-12-01T07:32:11.232Z,93.3
2022-12-01T07:33:27.464Z,95.4
2022-12-01T07:34:43.704Z,96
2022-12-01T07:35:59.964Z,105.9
2022-12-01T07:37:16.192Z,91.7
2022-12-01T07:38:32.433Z,84.2
2022-12-01T07:39:48.676Z,88.3
2022-12-01T07:41:04.914Z,84.3
2022-12-01T07:42:20.172Z,86.9
2022-12-01T07:43:36.408Z,96.6
2022-12-01T07:44:52.643Z,91.2
2022-12-01T07:46:08.885Z,85.2
2022-12-01T07:47:25.113Z,89.5
2022-12-01T07:48:41.370Z,83.9
2022-12-01T07:49:56.627Z,84.1
2022-12-01T07:51:12.872Z,84.8
2022-12-01T07:52:29.105Z,90.3
2022-12-01T07:53:45.344Z,89.2
2022-12-01T07:55:01.599Z,82.1
2022-12-01T07:56:17.817Z,89.2
2022-12-01T07:57:34.064Z,89.7
2022-12-01T07:58:50.307Z,88.8
2022-12-01T08:00:06.542Z,97
2022-12-01T08:01:22.777Z,86.8
2022-12-01T08:02:39.026Z,79.3
2022-12-01T08:03:55.257Z,82.9
2022-12-01T08:05:11.502Z,87.5
2022-12-01T08:06:27.865Z,78.3
2022-12-01T08:07:44.106Z,85.5
2022-12-01T08:09:00.342Z,94.5
2022-12-01T08:10:16.595Z,79
2022-12-01T08:11:32.813Z,97.7
2022-12-01T08:12:49.055Z,82.2
2022-12-01T08:14:05.298Z,85.3
2022-12-01T08:15:21.540Z,100.8
2022-12-01T08:16:37.772Z,82.5
2022-12-01T08:17:54.031Z,94
2022-12-01T08:19:10.258Z,91.9
2022-12-01T08:20:26.499Z,89
2022-12-01T08:21:42.750Z,103
2022-12-01T08:22:57.990Z,100.8
2022-12-01T08:24:14.237Z,99.7
2022-12-01T08:25:30.476Z,103.9
2022-12-01T08:26:46.733Z,96.5
2022-12-01T08:28:02.958Z,88.9
2022-12-01T08:29:19.199Z,91.1
2022-12-01T08:30:35.430Z,94.4
2022-12-01T08:31:51.676Z,97.8
2022-12-01T08:33:07.913Z,91.9
2022-12-01T08:34:24.149Z,93.5
2022-12-01T08:35:40.396Z,88.1
2022-12-01T08:36:56.637Z,85.2
2022-12-01T08:38:12.866Z,89
2022-12-01T08:39:28.121Z,87.1
2022-12-01T08:40:44.372Z,86.3
2022-12-01T08:42:00.621Z,83
2022-12-01T08:43:16.844Z,88
2022-12-01T08:44:33.097Z,93.6
2022-12-01T08:45:49.329Z,83.7
2022-12-01T08:47:05.571Z,95.7
2022-12-01T08:48:21.817Z,95.2
2022-12-01T08:49:38.055Z,91.3
2022-12-01T08:50:54.285Z,93.9
2022-12-01T08:52:10.523Z,96.3
2022-12-01T08:53:26.766Z,87.7
2022-12-01T08:54:43.014Z,90.3
2022-12-01T08:55:58.267Z,93
2022-12-01T08:57:14.510Z,98.8
2022-12-01T08:58:30.740Z,93
2022-12-01T08:59:46.994Z,103.1
2022-12-01T09:01:03.215Z,100.3
2022-12-01T09:02:19.458Z,100.5
2022-12-01T09:03:35.711Z,103.7
2022-12-01T09:04:51.947Z,99.2
2022-12-01T09:06:08.185Z,98.7
2022-12-01T09:07:24.433Z,94
2022-12-01T09:08:40.670Z,87.3
2022-12-01T09:09:56.901Z,101.5
2022-12-01T09:11:13.142Z,100.8
2022-12-01T09:12:28.399Z,94.4
2022-12-01T09:13:44.634Z,85.7
2022-12-01T09:15:00.875Z,94.9
2022-12-01T09:16:17.122Z,90.8
2022-12-01T09:17:33.352Z,84.9
2022-12-01T09:18:49.602Z,83.4
2022-12-01T09:20:05.838Z,85.2
2022-12-01T09:21:22.077Z,90.4
2022-12-01T09:22:38.324Z,92.6
2022-12-01T09:23:54.549Z,86.6
2022-12-01T09:25:10.804Z,92.4
2022-12-01T09:26:27.054Z,87.6
2022-12-01T09:27:43.275Z,92.8
2022-12-01T09:28:58.534Z,82.4
2022-12-01T09:30:14.777Z,89.1
2022-12-01T09:31:31.023Z,83.7
2022-12-01T09:32:47.252Z,93.6
2022-12-01T09:34:03.491Z,92.8
2022-12-01T09:35:19.735Z,90
2022-12-01T09:36:35.969Z,87.1
2022-12-01T09:37:52.203Z,97.1
2022-12-01T09:39:08.454Z,86.9
2022-12-01T09:40:24.682Z,93.3
2022-12-01T09:41:40.927Z,93.8
2022-12-01T09:42:57.170Z,83.4
2022-12-01T09:44:13.404Z,84.6
2022-12-01T09:45:28.666Z,93.5
2022-12-01T09:46:44.918Z,88.2
2022-12-01T09:48:01.139Z,95
2022-12-01T09:49:17.390Z,84.7
2022-12-01T09:50:33.627Z,85.9
2022-12-01T09:51:49.872Z,94.3
2022-12-01T09:53:06.109Z,97.6
2022-12-01T09:54:22.339Z,88.5
2022-12-01T09:55:38.576Z,94.7
2022-12-01T09:56:54.828Z,92.6
2022-12-01T09:58:11.071Z,77.1
2022-12-01T09:59:27.307Z,83.9
2022-12-01T10:00:43.537Z,90.8
2022-12-01T10:01:58.809Z,93.9
2022-12-01T10:03:15.031Z,81.2
2022-12-01T10:04:31.294Z,79
2022-12-01T10:05:47.527Z,84.1
2022-12-01T10:07:03.769Z,80
2022-12-01T10:08:20.008Z,78.8
2022-12-01T10:09:36.242Z,83.2
2022-12-01T10:10:52.498Z,84.7
2022-12-01T10:12:08.720Z,87.9
2022-12-01T10:13:24.963Z,97
2022-12-01T10:14:41.208Z,83.8
2022-12-01T10:15:57.444Z,92.1
2022-12-01T10:17:13.688Z,81.3
2022-12-01T10:18:28.930Z,74.1
2022-12-01T10:19:45.176Z,82.1
2022-12-01T10:21:01.424Z,89.6
2022-12-01T10:22:17.667Z,84.2
2022-12-01T10:23:33.893Z,83.5
2022-12-01T10:24:50.138Z,86.8
2022-12-01T10:26:06.365Z,94.6
2022-12-01T10:27:22.617Z,92.2
2022-12-01T10:28:38.848Z,95.4
2022-12-01T10:29:55.096Z,98.2
2022-12-01T10:31:11.337Z,97.5
2022-12-01T10:32:27.565Z,112.8
2022-12-01T10:33:43.813Z,102.5
2022-12-01T10:34:59.072Z,94.2
2022-12-01T10:36:15.314Z,93.5
2022-12-01T10:37:31.547Z,105.5
2022-12-01T10:38:47.782Z,86.9
2022-12-01T10:40:04.029Z,96.4
2022-12-01T10:41:20.271Z,95.6
2022-12-01T10:42:36.517Z,96.7
2022-12-01T10:43:52.747Z,92.3
2022-12-01T10:45:08.985Z,99.5
2022-12-01T10:46:25.225Z,95
2022-12-01T10:47:41.464Z,103.7
2022-12-01T10:48:57.706Z,99.9
2022-12-01T10:50:13.952Z,102.1
2022-12-01T10:51:29.206Z,101.5
2022-12-01T10:52:45.451Z,105.3
2022-12-01T10:54:01.677Z,98.4
2022-12-01T10:55:17.931Z,98.9
2022-12-01T10:56:34.155Z,97.3
2022-12-01T10:57:50.401Z,104
2022-12-01T10:59:06.641Z,105.1
2022-12-01T11:00:22.870Z,109
2022-12-01T11:01:39.110Z,102.1
2022-12-01T11:02:55.365Z,99.4
2022-12-01T11:04:11.609Z,99.4
2022-12-01T11:05:27.832Z,101.1
2022-12-01T11:06:44.074Z,99.2
2022-12-01T11:07:59.339Z,104.6
2022-12-01T11:09:15.570Z,111.1
2022-12-01T11:10:31.808Z,105
2022-12-01T11:11:48.056Z,105.9
2022-12-01T11:13:04.284Z,106.4
2022-12-01T11:14:20.533Z,106.3
2022-12-01T11:15:36.782Z,97.5
2022-12-01T11:16:53.007Z,102.6
2022-12-01T11:18:09.268Z,99
2022-12-01T11:19:25.511Z,112.7
2022-12-01T11:20:41.734Z,106.6
2022-12-01T11:21:57.962Z,102.8
2022-12-01T11:23:14.220Z,100.7
2022-12-01T11:24:29.469Z,93
2022-12-01T11:25:45.712Z,102
2022-12-01T11:27:01.952Z,101.5
2022-12-01T11:28:18.184Z,96
2022-12-01T11:29:34.420Z,101.7
2022-12-01T11:30:50.669Z,98.8
2022-12-01T11:32:06.917Z,100.5
2022-12-01T11:33:23.146Z,102.3
2022-12-01T11:34:39.384Z,103
2022-12-01T11:35:55.617Z,98.6
2022-12-01T11:37:11.865Z,104.3
2022-12-01T11:38:28.112Z,105.4
2022-12-01T11:39:44.352Z,111.4
2022-12-01T11:40:59.600Z,105.9
2022-12-01T11:42:15.833Z,98.9
2022-12-01T11:43:32.082Z,114.4
2022-12-01T11:44:48.319Z,110
2022-12-01T11:46:04.575Z,115.3
2022-12-01T11:47:20.802Z,105.5
2022-12-01T11:48:37.040Z,116.5
2022-12-01T11:49:53.281Z,110.6
2022-12-01T11:51:09.522Z,106.5
2022-12-01T11:52:25.773Z,115
2022-12-01T11:53:42.007Z,108.4
2022-12-01T11:54:58.235Z,105.7
2022-12-01T11:56:14.470Z,116
2022-12-01T11:57:29.734Z,111.3
2022-12-01T11:58:45.971Z,110.8
2022-12-01T12:00:02.220Z,100.8
2022-12-01T12:01:18.449Z,112.2
2022-12-01T12:02:34.702Z,106.2
2022-12-01T12:03:50.936Z,104.5
2022-12-01T12:05:06.200Z,103.2
2022-12-01T12:06:22.443Z,117.3
2022-12-01T12:07:38.677Z,121.1
2022-12-01T12:08:54.921Z,107.6
2022-12-01T12:10:11.146Z,116.5
2022-12-01T12:11:27.400Z,121.3
2022-12-01T12:12:43.629Z,117.7
2022-12-01T12:13:59.866Z,115.2
2022-12-01T12:15:16.105Z,112.2
2022-12-01T12:16:32.356Z,117.7
2022-12-01T12:17:48.586Z,112.2
2022-12-01T12:19:04.836Z,124.2
2022-12-01T12:20:21.082Z,114.8
2022-12-01T12:21:36.340Z,111.8
2022-12-01T12:22:52.579Z,109.1
2022-12-01T12:24:08.817Z,116.8
2022-12-01T12:25:25.043Z,115.2
2022-12-01T12:26:41.299Z,115.8
2022-12-01T12:27:57.526Z,116.7
2022-12-01T12:29:13.765Z,122.1
2022-12-01T12:30:30.004Z,127
2022-12-01T12:31:46.239Z,108
2022-12-01T12:33:02.488Z,121.7
2022-12-01T12:34:18.729Z,123.7
2022-12-01T12:35:34.973Z,118.1
2022-12-01T12:36:51.201Z,127.2
2022-12-01T12:38:06.458Z,134
2022-12-01T12:39:22.702Z,122
2022-12-01T12:40:38.938Z,119
2022-12-01T12:41:55.188Z,119
2022-12-01T12:43:11.421Z,120.2
2022-12-01T12:44:27.668Z,111.9
2022-12-01T12:45:43.900Z,115.6
2022-12-01T12:47:00.143Z,122.4
2022-12-01T12:48:16.388Z,118.1
2022-12-01T12:49:32.629Z,120.6
2022-12-01T12:50:48.861Z,158.6
2022-12-01T12:52:05.100Z,157.8
2022-12-01T12:53:21.339Z,143.3
2022-12-01T12:54:36.597Z,144.9
2022-12-01T12:55:52.829Z,112.2
2022-12-01T12:57:09.078Z,129.1
2022-12-01T12:58:25.313Z,134.5
2022-12-01T12:59:41.549Z,123.4
2022-12-01T13:00:57.792Z,121.9
2022-12-01T13:02:14.042Z,119.4
2022-12-01T13:03:30.272Z,117
2022-12-01T13:04:46.505Z,116.5
2022-12-01T13:06:02.747Z,111.1
2022-12-01T13:07:18.995Z,121.4
2022-12-01T13:08:35.235Z,114.3
2022-12-01T13:09:51.474Z,115.3
2022-12-01T13:11:06.736Z,108.3
2022-12-01T13:12:22.962Z,109.1
2022-12-01T13:13:39.216Z,107.7
2022-12-01T13:14:55.457Z,117.5
2022-12-01T13:16:11.696Z,108.4
2022-12-01T13:17:27.924Z,120.3
2022-12-01T13:18:44.165Z,114.7
2022-12-01T13:20:00.420Z,107.6
2022-12-01T13:21:16.662Z,111
2022-12-01T13:22:32.884Z,114.9
2022-12-01T13:23:49.136Z,114.2
2022-12-01T13:25:05.373Z,110.9
2022-12-01T13:26:21.604Z,116.2
2022-12-01T13:27:36.854Z,105.3
2022-12-01T13:28:53.104Z,107
2022-12-01T13:30:09.353Z,108.6
2022-12-01T13:31:25.580Z,116.1
2022-12-01T13:32:41.821Z,120.4
2022-12-01T13:33:58.070Z,118.7
2022-12-01T13:35:14.304Z,109.3
2022-12-01T13:36:30.538Z,110.4
2022-12-01T13:37:46.777Z,115.2
2022-12-01T13:39:03.015Z,117.4
2022-12-01T13:40:19.267Z,115.3
2022-12-01T13:41:35.500Z,123.8
2022-12-01T13:42:51.731Z,116
2022-12-01T13:44:08.111Z,126.9
2022-12-01T13:45:24.337Z,121
2022-12-01T13:46:40.591Z,114.9
2022-12-01T13:47:56.816Z,114
2022-12-01T13:49:13.061Z,122.9
2022-12-01T13:50:29.317Z,116.8
2022-12-01T13:51:45.536Z,122.8
2022-12-01T13:53:01.776Z,119.5
2022-12-01T13:54:18.027Z,118
2022-12-01T13:55:34.262Z,119.1
2022-12-01T13:56:50.498Z,112.6
2022-12-01T13:58:06.753Z,127.4
2022-12-01T13:59:22.969Z,115.9
2022-12-01T14:00:38.238Z,122.4
2022-12-01T14:01:54.472Z,117.7
2022-12-01T14:03:10.722Z,121.8
2022-12-01T14:04:26.960Z,113.4
2022-12-01T14:05:43.185Z,117.7
2022-12-01T14:06:59.426Z,114.3
2022-12-01T14:08:15.664Z,116.6
2022-12-01T14:09:31.918Z,109.4
2022-12-01T14:10:48.162Z,121.9
2022-12-01T14:12:04.390Z,113.2
2022-12-01T14:13:20.632Z,108.4
2022-12-01T14:14:36.865Z,109.8
2022-12-01T14:15:53.115Z,102.5
2022-12-01T14:17:09.463Z,106
2022-12-01T14:18:25.710Z,99.6
2022-12-01T14:19:41.962Z,110.7
2022-12-01T14:20:58.181Z,105.3
2022-12-01T14:22:14.441Z,106.7
2022-12-01T14:23:30.663Z,109.3
2022-12-01T14:24:46.913Z,104
2022-12-01T14:26:03.146Z,113.2
2022-12-01T14:27:19.390Z,98.4
2022-12-01T14:28:35.623Z,108.8
2022-12-01T14:29:51.863Z,97.8
2022-12-01T14:31:08.104Z,100.9
2022-12-01T14:32:24.347Z,95
2022-12-01T14:33:39.614Z,94.4
2022-12-01T14:34:55.841Z,95.5
2022-12-01T14:36:12.082Z,97.5
2022-12-01T14:37:28.324Z,90.6
2022-12-01T14:38:44.571Z,98.6
2022-12-01T14:40:00.822Z,96.8
2022-12-01T14:41:17.039Z,102.5
2022-12-01T14:42:33.295Z,98.1
2022-12-01T14:43:49.514Z,96.8
2022-12-01T14:45:05.761Z,98.9
2022-12-01T14:46:22.018Z,99.9
2022-12-01T14:47:38.236Z,94
2022-12-01T14:48:54.494Z,96.7
2022-12-01T14:50:09.747Z,98.4
2022-12-01T14:51:25.990Z,103.4
2022-12-01T14:52:42.226Z,102.7
2022-12-01T14:53:58.460Z,94.6
2022-12-01T14:55:14.703Z,98.3
2022-12-01T14:56:30.941Z,104.7
2022-12-01T14:57:47.179Z,101.8
2022-12-01T14:59:03.426Z,167.6
2022-12-01T15:00:19.667Z,172.8
2022-12-01T15:01:35.889Z,143.7
2022-12-01T15:02:52.147Z,205.8
2022-12-01T15:04:08.396Z,125.8
2022-12-01T15:05:24.619Z,102
2022-12-01T15:06:39.875Z,113.3
2022-12-01T15:07:56.108Z,106.3
2022-12-01T15:09:12.355Z,100.7
2022-12-01T15:10:28.602Z,103.7
2022-12-01T15:11:44.842Z,104.8
2022-12-01T15:13:01.076Z,103.5
2022-12-01T15:14:17.368Z,104.4
2022-12-01T15:15:33.618Z,99.8
2022-12-01T15:16:49.851Z,100.4
2022-12-01T15:18:06.092Z,110.8
2022-12-01T15:19:22.339Z,111.9
2022-12-01T15:20:38.583Z,112.6
2022-12-01T15:23:11.157Z,113.4
2022-12-01T15:24:26.469Z,112.3
2022-12-01T15:25:42.000Z,114.9
2022-12-01T15:26:58.967Z,111.8
2022-12-01T15:28:15.209Z,119.8
2022-12-01T15:29:31.452Z,117.1
2022-12-01T15:30:47.682Z,113.7
2022-12-01T15:32:03.936Z,114.2
2022-12-01T15:33:20.221Z,113.7
2022-12-01T15:34:36.512Z,125.8
2022-12-01T15:35:52.804Z,124.1
2022-12-01T15:37:09.095Z,135.7
2022-12-01T15:38:25.385Z,132.4
2022-12-01T15:39:41.685Z,118.7
2022-12-01T15:40:57.003Z,125.2
2022-12-01T15:42:13.295Z,123.9
2022-12-01T15:43:29.587Z,124
2022-12-01T15:44:45.889Z,122.2
2022-12-01T15:46:02.175Z,113.2
2022-12-01T15:47:18.475Z,107.3
2022-12-01T15:48:34.763Z,109.5
2022-12-01T15:49:51.051Z,105.3
2022-12-01T15:51:07.347Z,101.2
2022-12-01T15:52:23.654Z,114.9
2022-12-01T15:53:39.932Z,102.9
2022-12-01T15:54:56.230Z,106.7
2022-12-01T15:56:12.518Z,114.4
2022-12-01T15:57:27.828Z,106.9
2022-12-01T15:58:44.126Z,122.4
2022-12-01T16:00:00.419Z,139.8
2022-12-01T16:01:16.710Z,156.6
2022-12-01T16:02:33.005Z,135.9
2022-12-01T16:03:49.303Z,132.9
2022-12-01T16:05:05.596Z,128.3
2022-12-01T16:06:21.893Z,116.7
2022-12-01T16:07:38.180Z,103.4
2022-12-01T16:08:54.477Z,110.6
2022-12-01T16:10:10.777Z,99.1
2022-12-01T16:11:27.077Z,107.8
2022-12-01T16:12:43.366Z,113.9
2022-12-01T16:13:58.676Z,108.1
2022-12-01T16:15:14.962Z,116
2022-12-01T16:16:31.262Z,107.2
2022-12-01T16:17:47.549Z,110.8
2022-12-01T16:19:03.849Z,97.8
2022-12-01T16:20:19.156Z,102.2
2022-12-01T16:21:35.448Z,106.7
2022-12-01T16:22:51.747Z,106.8
2022-12-01T16:24:08.035Z,104.9
2022-12-01T16:25:24.332Z,95.9
2022-12-01T16:26:40.625Z,106.7
2022-12-01T16:27:56.915Z,106.2
2022-12-01T16:29:13.212Z,104.6
2022-12-01T16:30:29.502Z,102.4
2022-12-01T16:31:45.795Z,108.9
2022-12-01T16:33:02.099Z,112.3
2022-12-01T16:34:18.390Z,106.3
2022-12-01T16:35:34.678Z,93.7
2022-12-01T16:36:49.997Z,104.4
2022-12-01T16:38:06.299Z,105.6
2022-12-01T16:39:22.588Z,113
2022-12-01T16:40:38.875Z,104.1
2022-12-01T16:41:55.168Z,104.9
2022-12-01T16:43:11.459Z,113.5
2022-12-01T16:44:27.760Z,120.7
2022-12-01T16:45:44.044Z,112.6
2022-12-01T16:47:00.352Z,103.2
2022-12-01T16:48:16.631Z,114.4